sensor_id;sensor_type;location;lat;lon;timestamp;temperature;humidity
27707;DHT22;36332;51.384;0.040;2023-05-10T00:00:57;12.00;99.90
27707;DHT22;36332;51.384;0.040;2023-05-10T00:03:25;12.40;99.90
27707;DHT22;36332;51.384;0.040;2023-05-10T00:05:52;12.00;99.90
27707;DHT22;36332;51.384;0.040;2023-05-10T00:08:19;12.20;99.90
27707;DHT22;36332;51.384;0.040;2023-05-10T00:10:47;12.10;99.90
27707;DHT22;36332;51.384;0.040;2023-05-10T00:13:15;11.90;99.90
27707;DHT22;36332;51.384;0.040;2023-05-10T00:15:43;12.20;99.90
27707;DHT22;36332;51.384;0.040;2023-05-10T00:18:10;12.10;99.90
27707;DHT22;36332;51.384;0.040;2023-05-10T00:20:38;11.30;99.90
27707;DHT22;36332;51.384;0.040;2023-05-10T00:23:05;12.10;99.90
27707;DHT22;36332;51.384;0.040;2023-05-10T00:25:33;12.30;99.90
27707;DHT22;36332;51.384;0.040;2023-05-10T00:28:00;12.60;99.90
27707;DHT22;36332;51.384;0.040;2023-05-10T00:30:29;11.70;99.90
27707;DHT22;36332;51.384;0.040;2023-05-10T00:32:56;12.20;99.90
27707;DHT22;36332;51.384;0.040;2023-05-10T00:35:24;12.10;99.90
27707;DHT22;36332;51.384;0.040;2023-05-10T00:37:52;12.10;99.90
27707;DHT22;36332;51.384;0.040;2023-05-10T00:40:20;11.90;99.90
27707;DHT22;36332;51.384;0.040;2023-05-10T00:42:53;11.90;99.90
27707;DHT22;36332;51.384;0.040;2023-05-10T00:45:21;12.20;99.90
27707;DHT22;36332;51.384;0.040;2023-05-10T00:47:48;12.20;99.90
27707;DHT22;36332;51.384;0.040;2023-05-10T00:50:17;12.20;99.90
27707;DHT22;36332;51.384;0.040;2023-05-10T00:52:45;12.30;99.90
27707;DHT22;36332;51.384;0.040;2023-05-10T00:55:13;12.00;99.90
27707;DHT22;36332;51.384;0.040;2023-05-10T00:57:42;12.20;99.90
27707;DHT22;36332;51.384;0.040;2023-05-10T01:00:10;12.00;99.90
27707;DHT22;36332;51.384;0.040;2023-05-10T01:02:39;12.10;99.90
27707;DHT22;36332;51.384;0.040;2023-05-10T01:05:07;12.40;99.90
27707;DHT22;36332;51.384;0.040;2023-05-10T01:07:35;12.00;99.90
27707;DHT22;36332;51.384;0.040;2023-05-10T01:10:05;12.20;99.90
27707;DHT22;36332;51.384;0.040;2023-05-10T01:12:38;11.80;99.90
27707;DHT22;36332;51.384;0.040;2023-05-10T01:15:08;12.10;99.90
27707;DHT22;36332;51.384;0.040;2023-05-10T01:17:39;12.10;99.90
27707;DHT22;36332;51.384;0.040;2023-05-10T01:20:07;12.50;99.90
27707;DHT22;36332;51.384;0.040;2023-05-10T01:34:11;12.30;99.90
27707;DHT22;36332;51.384;0.040;2023-05-10T01:41:55;12.40;99.90
27707;DHT22;36332;51.384;0.040;2023-05-10T01:47:38;12.40;99.90
27707;DHT22;36332;51.384;0.040;2023-05-10T01:50:17;12.40;99.90
27707;DHT22;36332;51.384;0.040;2023-05-10T01:52:55;12.50;99.90
27707;DHT22;36332;51.384;0.040;2023-05-10T01:55:27;12.70;99.90
27707;DHT22;36332;51.384;0.040;2023-05-10T01:58:06;12.50;99.90
27707;DHT22;36332;51.384;0.040;2023-05-10T02:00:35;12.50;99.90
27707;DHT22;36332;51.384;0.040;2023-05-10T02:03:08;12.50;99.90
27707;DHT22;36332;51.384;0.040;2023-05-10T02:05:38;12.50;99.90
27707;DHT22;36332;51.384;0.040;2023-05-10T02:08:08;12.30;99.90
27707;DHT22;36332;51.384;0.040;2023-05-10T02:10:37;12.80;99.90
27707;DHT22;36332;51.384;0.040;2023-05-10T02:13:07;12.80;99.90
27707;DHT22;36332;51.384;0.040;2023-05-10T02:15:37;12.50;99.90
27707;DHT22;36332;51.384;0.040;2023-05-10T02:18:06;12.80;99.90
27707;DHT22;36332;51.384;0.040;2023-05-10T02:20:37;13.10;99.90
27707;DHT22;36332;51.384;0.040;2023-05-10T02:23:05;12.50;99.90
27707;DHT22;36332;51.384;0.040;2023-05-10T02:25:34;12.50;99.90
27707;DHT22;36332;51.384;0.040;2023-05-10T02:28:04;12.60;99.90
27707;DHT22;36332;51.384;0.040;2023-05-10T02:30:33;12.40;99.90
27707;DHT22;36332;51.384;0.040;2023-05-10T02:33:04;12.80;99.90
27707;DHT22;36332;51.384;0.040;2023-05-10T02:35:32;12.30;99.90
27707;DHT22;36332;51.384;0.040;2023-05-10T02:38:02;12.60;99.90
27707;DHT22;36332;51.384;0.040;2023-05-10T02:40:31;12.50;99.90
27707;DHT22;36332;51.384;0.040;2023-05-10T02:43:01;12.70;99.90
27707;DHT22;36332;51.384;0.040;2023-05-10T02:45:32;12.30;99.90
27707;DHT22;36332;51.384;0.040;2023-05-10T02:48:01;12.30;99.90
27707;DHT22;36332;51.384;0.040;2023-05-10T02:50:30;12.30;99.90
27707;DHT22;36332;51.384;0.040;2023-05-10T02:53:01;12.70;99.90
27707;DHT22;36332;51.384;0.040;2023-05-10T02:55:37;12.30;99.90
27707;DHT22;36332;51.384;0.040;2023-05-10T02:58:06;12.50;99.90
27707;DHT22;36332;51.384;0.040;2023-05-10T03:00:34;12.20;99.90
27707;DHT22;36332;51.384;0.040;2023-05-10T03:03:02;12.50;99.90
27707;DHT22;36332;51.384;0.040;2023-05-10T03:05:30;12.20;99.90
27707;DHT22;36332;51.384;0.040;2023-05-10T03:08:01;12.50;99.90
27707;DHT22;36332;51.384;0.040;2023-05-10T03:10:32;12.20;99.90
27707;DHT22;36332;51.384;0.040;2023-05-10T03:13:16;12.20;99.90
27707;DHT22;36332;51.384;0.040;2023-05-10T03:18:41;12.60;99.90
27707;DHT22;36332;51.384;0.040;2023-05-10T03:21:12;12.10;99.90
27707;DHT22;36332;51.384;0.040;2023-05-10T03:23:48;12.20;99.90
27707;DHT22;36332;51.384;0.040;2023-05-10T03:26:21;12.50;99.90
27707;DHT22;36332;51.384;0.040;2023-05-10T03:28:52;12.20;99.90
27707;DHT22;36332;51.384;0.040;2023-05-10T03:31:21;12.20;99.90
27707;DHT22;36332;51.384;0.040;2023-05-10T03:33:49;12.30;99.90
27707;DHT22;36332;51.384;0.040;2023-05-10T03:36:22;12.30;99.90
27707;DHT22;36332;51.384;0.040;2023-05-10T03:38:50;12.10;99.90
27707;DHT22;36332;51.384;0.040;2023-05-10T03:41:18;12.30;99.90
27707;DHT22;36332;51.384;0.040;2023-05-10T03:43:45;12.30;99.90
27707;DHT22;36332;51.384;0.040;2023-05-10T03:46:13;12.30;99.90
27707;DHT22;36332;51.384;0.040;2023-05-10T03:48:40;12.50;99.90
27707;DHT22;36332;51.384;0.040;2023-05-10T03:51:08;12.00;99.90
27707;DHT22;36332;51.384;0.040;2023-05-10T03:53:35;11.90;99.90
27707;DHT22;36332;51.384;0.040;2023-05-10T03:56:04;12.50;99.90
27707;DHT22;36332;51.384;0.040;2023-05-10T03:58:31;12.00;99.90
27707;DHT22;36332;51.384;0.040;2023-05-10T04:00:59;11.90;99.90
27707;DHT22;36332;51.384;0.040;2023-05-10T04:03:26;12.20;99.90
27707;DHT22;36332;51.384;0.040;2023-05-10T04:06:01;12.20;99.90
27707;DHT22;36332;51.384;0.040;2023-05-10T04:08:29;11.90;99.90
27707;DHT22;36332;51.384;0.040;2023-05-10T04:11:10;12.20;99.90
27707;DHT22;36332;51.384;0.040;2023-05-10T04:13:38;11.40;99.90
27707;DHT22;36332;51.384;0.040;2023-05-10T04:16:06;12.00;99.90
27707;DHT22;36332;51.384;0.040;2023-05-10T04:18:34;12.00;99.90
27707;DHT22;36332;51.384;0.040;2023-05-10T04:21:02;10.80;99.90
27707;DHT22;36332;51.384;0.040;2023-05-10T04:23:30;11.80;99.90
27707;DHT22;36332;51.384;0.040;2023-05-10T04:26:01;12.00;99.90
27707;DHT22;36332;51.384;0.040;2023-05-10T04:28:29;12.30;99.90
27707;DHT22;36332;51.384;0.040;2023-05-10T04:31:07;11.60;99.90
27707;DHT22;36332;51.384;0.040;2023-05-10T04:33:36;11.70;99.90
27707;DHT22;36332;51.384;0.040;2023-05-10T04:36:04;11.70;99.90
27707;DHT22;36332;51.384;0.040;2023-05-10T04:38:32;11.70;99.90
27707;DHT22;36332;51.384;0.040;2023-05-10T04:41:05;11.80;99.90
27707;DHT22;36332;51.384;0.040;2023-05-10T04:43:33;11.60;99.90
27707;DHT22;36332;51.384;0.040;2023-05-10T04:46:01;11.60;99.90
27707;DHT22;36332;51.384;0.040;2023-05-10T04:48:29;11.50;99.90
27707;DHT22;36332;51.384;0.040;2023-05-10T04:50:57;11.80;99.90
27707;DHT22;36332;51.384;0.040;2023-05-10T04:53:24;11.70;99.90
27707;DHT22;36332;51.384;0.040;2023-05-10T04:55:52;11.70;99.90
27707;DHT22;36332;51.384;0.040;2023-05-10T04:58:20;11.50;99.90
27707;DHT22;36332;51.384;0.040;2023-05-10T05:00:48;11.50;99.90
27707;DHT22;36332;51.384;0.040;2023-05-10T05:03:15;11.80;99.90
27707;DHT22;36332;51.384;0.040;2023-05-10T05:05:44;11.70;99.90
27707;DHT22;36332;51.384;0.040;2023-05-10T05:08:12;11.70;99.90
27707;DHT22;36332;51.384;0.040;2023-05-10T05:10:40;11.80;99.90
27707;DHT22;36332;51.384;0.040;2023-05-10T05:13:07;11.60;99.90
27707;DHT22;36332;51.384;0.040;2023-05-10T05:15:35;11.50;99.90
27707;DHT22;36332;51.384;0.040;2023-05-10T05:18:03;11.70;99.90
27707;DHT22;36332;51.384;0.040;2023-05-10T05:20:32;11.40;99.90
27707;DHT22;36332;51.384;0.040;2023-05-10T05:23:01;11.60;99.90
27707;DHT22;36332;51.384;0.040;2023-05-10T05:25:29;11.40;99.90
27707;DHT22;36332;51.384;0.040;2023-05-10T05:27:56;11.40;99.90
27707;DHT22;36332;51.384;0.040;2023-05-10T05:30:24;12.10;99.90
27707;DHT22;36332;51.384;0.040;2023-05-10T05:32:52;10.40;99.90
27707;DHT22;36332;51.384;0.040;2023-05-10T05:35:19;11.40;99.90
27707;DHT22;36332;51.384;0.040;2023-05-10T05:37:47;11.70;99.90
27707;DHT22;36332;51.384;0.040;2023-05-10T05:40:15;11.80;99.90
27707;DHT22;36332;51.384;0.040;2023-05-10T05:42:42;11.70;99.90
27707;DHT22;36332;51.384;0.040;2023-05-10T05:45:11;11.60;99.90
27707;DHT22;36332;51.384;0.040;2023-05-10T05:47:41;11.90;99.90
27707;DHT22;36332;51.384;0.040;2023-05-10T05:50:09;11.70;99.90
27707;DHT22;36332;51.384;0.040;2023-05-10T05:52:37;11.80;99.90
27707;DHT22;36332;51.384;0.040;2023-05-10T05:55:04;12.10;99.90
27707;DHT22;36332;51.384;0.040;2023-05-10T05:57:32;12.00;99.90
27707;DHT22;36332;51.384;0.040;2023-05-10T06:00:00;12.30;99.90
27707;DHT22;36332;51.384;0.040;2023-05-10T06:02:27;12.10;99.90
27707;DHT22;36332;51.384;0.040;2023-05-10T06:04:55;12.40;99.90
27707;DHT22;36332;51.384;0.040;2023-05-10T06:07:23;12.10;99.90
27707;DHT22;36332;51.384;0.040;2023-05-10T06:09:50;12.00;99.90
27707;DHT22;36332;51.384;0.040;2023-05-10T06:12:17;12.70;99.90
27707;DHT22;36332;51.384;0.040;2023-05-10T06:14:45;12.10;99.90
27707;DHT22;36332;51.384;0.040;2023-05-10T06:17:12;12.20;99.90
27707;DHT22;36332;51.384;0.040;2023-05-10T06:19:40;12.10;99.90
27707;DHT22;36332;51.384;0.040;2023-05-10T06:22:07;12.30;99.90
27707;DHT22;36332;51.384;0.040;2023-05-10T06:24:35;12.50;99.90
27707;DHT22;36332;51.384;0.040;2023-05-10T06:27:02;13.60;99.90
27707;DHT22;36332;51.384;0.040;2023-05-10T06:29:31;12.20;99.90
27707;DHT22;36332;51.384;0.040;2023-05-10T06:31:58;12.20;99.90
27707;DHT22;36332;51.384;0.040;2023-05-10T06:34:26;12.50;99.90
27707;DHT22;36332;51.384;0.040;2023-05-10T06:36:54;12.30;99.90
27707;DHT22;36332;51.384;0.040;2023-05-10T06:39:21;12.60;99.90
27707;DHT22;36332;51.384;0.040;2023-05-10T06:41:49;12.30;99.90
27707;DHT22;36332;51.384;0.040;2023-05-10T06:44:19;12.60;99.90
27707;DHT22;36332;51.384;0.040;2023-05-10T06:46:46;12.60;99.90
27707;DHT22;36332;51.384;0.040;2023-05-10T06:49:14;12.50;99.90
27707;DHT22;36332;51.384;0.040;2023-05-10T06:51:42;12.90;99.90
27707;DHT22;36332;51.384;0.040;2023-05-10T06:54:10;12.90;99.90
27707;DHT22;36332;51.384;0.040;2023-05-10T06:56:37;12.70;99.90
27707;DHT22;36332;51.384;0.040;2023-05-10T06:59:05;13.00;99.90
27707;DHT22;36332;51.384;0.040;2023-05-10T07:01:32;12.80;99.90
27707;DHT22;36332;51.384;0.040;2023-05-10T07:04:00;12.80;99.90
27707;DHT22;36332;51.384;0.040;2023-05-10T07:06:28;13.10;99.90
27707;DHT22;36332;51.384;0.040;2023-05-10T07:09:00;13.20;99.90
27707;DHT22;36332;51.384;0.040;2023-05-10T07:11:28;13.10;99.90
27707;DHT22;36332;51.384;0.040;2023-05-10T07:13:56;13.00;99.90
27707;DHT22;36332;51.384;0.040;2023-05-10T07:16:23;13.30;99.90
27707;DHT22;36332;51.384;0.040;2023-05-10T07:18:54;12.90;99.90
27707;DHT22;36332;51.384;0.040;2023-05-10T07:21:21;13.30;99.90
27707;DHT22;36332;51.384;0.040;2023-05-10T07:23:51;13.00;99.90
27707;DHT22;36332;51.384;0.040;2023-05-10T07:26:18;13.70;99.90
27707;DHT22;36332;51.384;0.040;2023-05-10T07:28:47;13.40;99.90
27707;DHT22;36332;51.384;0.040;2023-05-10T07:31:15;13.50;99.90
27707;DHT22;36332;51.384;0.040;2023-05-10T07:33:43;13.30;99.90
27707;DHT22;36332;51.384;0.040;2023-05-10T07:36:10;13.40;99.90
27707;DHT22;36332;51.384;0.040;2023-05-10T07:38:38;13.80;99.90
27707;DHT22;36332;51.384;0.040;2023-05-10T07:41:07;13.60;99.90
27707;DHT22;36332;51.384;0.040;2023-05-10T07:43:34;13.70;99.90
27707;DHT22;36332;51.384;0.040;2023-05-10T07:46:02;13.90;99.90
27707;DHT22;36332;51.384;0.040;2023-05-10T07:48:29;14.00;99.90
27707;DHT22;36332;51.384;0.040;2023-05-10T07:50:57;14.30;99.90
27707;DHT22;36332;51.384;0.040;2023-05-10T07:53:26;14.20;99.90
27707;DHT22;36332;51.384;0.040;2023-05-10T07:55:57;14.30;99.90
27707;DHT22;36332;51.384;0.040;2023-05-10T07:58:25;14.70;99.90
27707;DHT22;36332;51.384;0.040;2023-05-10T08:00:53;14.40;99.90
27707;DHT22;36332;51.384;0.040;2023-05-10T08:03:21;14.40;99.90
27707;DHT22;36332;51.384;0.040;2023-05-10T08:05:48;14.50;99.90
27707;DHT22;36332;51.384;0.040;2023-05-10T08:08:16;14.90;99.90
27707;DHT22;36332;51.384;0.040;2023-05-10T08:10:44;14.60;99.90
27707;DHT22;36332;51.384;0.040;2023-05-10T08:13:12;14.60;99.90
27707;DHT22;36332;51.384;0.040;2023-05-10T08:15:40;14.70;99.90
27707;DHT22;36332;51.384;0.040;2023-05-10T08:18:07;14.90;99.90
27707;DHT22;36332;51.384;0.040;2023-05-10T08:20:35;14.90;99.90
27707;DHT22;36332;51.384;0.040;2023-05-10T08:23:02;15.00;99.90
27707;DHT22;36332;51.384;0.040;2023-05-10T08:25:31;15.00;99.90
27707;DHT22;36332;51.384;0.040;2023-05-10T08:27:59;15.10;99.90
27707;DHT22;36332;51.384;0.040;2023-05-10T08:30:27;15.20;99.90
27707;DHT22;36332;51.384;0.040;2023-05-10T08:32:55;15.30;99.90
27707;DHT22;36332;51.384;0.040;2023-05-10T08:35:25;15.60;99.90
27707;DHT22;36332;51.384;0.040;2023-05-10T08:37:53;15.60;99.90
27707;DHT22;36332;51.384;0.040;2023-05-10T08:40:21;15.70;99.90
27707;DHT22;36332;51.384;0.040;2023-05-10T08:43:04;15.80;99.90
27707;DHT22;36332;51.384;0.040;2023-05-10T08:45:37;15.90;99.90
27707;DHT22;36332;51.384;0.040;2023-05-10T08:48:07;16.00;99.90
27707;DHT22;36332;51.384;0.040;2023-05-10T08:50:39;16.10;99.90
27707;DHT22;36332;51.384;0.040;2023-05-10T08:53:12;16.20;99.90
27707;DHT22;36332;51.384;0.040;2023-05-10T08:55:40;16.30;99.90
27707;DHT22;36332;51.384;0.040;2023-05-10T08:58:09;16.40;99.90
27707;DHT22;36332;51.384;0.040;2023-05-10T09:00:37;16.40;99.90
27707;DHT22;36332;51.384;0.040;2023-05-10T09:03:05;16.60;99.90
27707;DHT22;36332;51.384;0.040;2023-05-10T09:05:33;16.80;99.90
27707;DHT22;36332;51.384;0.040;2023-05-10T09:08:01;16.90;99.90
27707;DHT22;36332;51.384;0.040;2023-05-10T09:10:29;17.00;99.90
27707;DHT22;36332;51.384;0.040;2023-05-10T09:12:58;17.00;99.90
27707;DHT22;36332;51.384;0.040;2023-05-10T09:15:26;17.00;99.90
27707;DHT22;36332;51.384;0.040;2023-05-10T09:17:55;17.20;99.90
27707;DHT22;36332;51.384;0.040;2023-05-10T09:20:24;17.30;99.90
27707;DHT22;36332;51.384;0.040;2023-05-10T09:22:52;17.30;99.90
27707;DHT22;36332;51.384;0.040;2023-05-10T09:25:20;17.30;99.90
27707;DHT22;36332;51.384;0.040;2023-05-10T09:27:48;17.40;99.90
27707;DHT22;36332;51.384;0.040;2023-05-10T09:30:23;17.40;99.90
27707;DHT22;36332;51.384;0.040;2023-05-10T09:32:51;17.60;99.90
27707;DHT22;36332;51.384;0.040;2023-05-10T09:35:21;17.80;99.90
27707;DHT22;36332;51.384;0.040;2023-05-10T09:37:51;17.90;99.90
27707;DHT22;36332;51.384;0.040;2023-05-10T09:40:23;18.00;99.90
27707;DHT22;36332;51.384;0.040;2023-05-10T09:45:30;18.00;99.90
27707;DHT22;36332;51.384;0.040;2023-05-10T09:47:59;18.10;99.90
27707;DHT22;36332;51.384;0.040;2023-05-10T09:50:28;18.10;99.90
27707;DHT22;36332;51.384;0.040;2023-05-10T09:53:00;18.20;99.90
27707;DHT22;36332;51.384;0.040;2023-05-10T09:55:39;18.10;99.90
27707;DHT22;36332;51.384;0.040;2023-05-10T09:58:07;18.30;99.90
27707;DHT22;36332;51.384;0.040;2023-05-10T10:00:40;18.30;99.90
27707;DHT22;36332;51.384;0.040;2023-05-10T10:03:14;18.40;99.90
27707;DHT22;36332;51.384;0.040;2023-05-10T10:05:43;18.50;99.90
27707;DHT22;36332;51.384;0.040;2023-05-10T10:08:13;18.60;99.90
27707;DHT22;36332;51.384;0.040;2023-05-10T10:10:43;18.70;99.90
27707;DHT22;36332;51.384;0.040;2023-05-10T10:13:14;18.60;99.90
27707;DHT22;36332;51.384;0.040;2023-05-10T10:15:43;18.70;99.90
27707;DHT22;36332;51.384;0.040;2023-05-10T10:18:15;18.70;99.90
27707;DHT22;36332;51.384;0.040;2023-05-10T10:20:43;18.70;99.90
27707;DHT22;36332;51.384;0.040;2023-05-10T10:23:10;18.60;99.90
27707;DHT22;36332;51.384;0.040;2023-05-10T10:25:39;19.40;99.90
27707;DHT22;36332;51.384;0.040;2023-05-10T10:28:20;19.20;99.90
27707;DHT22;36332;51.384;0.040;2023-05-10T10:30:55;19.40;99.90
27707;DHT22;36332;51.384;0.040;2023-05-10T10:33:53;19.50;99.90
27707;DHT22;36332;51.384;0.040;2023-05-10T10:36:22;19.50;99.90
27707;DHT22;36332;51.384;0.040;2023-05-10T10:39:00;19.80;99.90
27707;DHT22;36332;51.384;0.040;2023-05-10T10:41:36;20.10;99.90
27707;DHT22;36332;51.384;0.040;2023-05-10T10:47:21;20.40;99.90
27707;DHT22;36332;51.384;0.040;2023-05-10T10:50:12;22.20;99.90
27707;DHT22;36332;51.384;0.040;2023-05-10T10:52:40;19.90;99.90
27707;DHT22;36332;51.384;0.040;2023-05-10T10:55:13;20.60;99.90
27707;DHT22;36332;51.384;0.040;2023-05-10T11:02:55;20.70;99.90
27707;DHT22;36332;51.384;0.040;2023-05-10T11:05:24;20.20;99.90
27707;DHT22;36332;51.384;0.040;2023-05-10T11:07:56;20.30;99.90
27707;DHT22;36332;51.384;0.040;2023-05-10T11:10:25;20.30;99.90
27707;DHT22;36332;51.384;0.040;2023-05-10T11:13:07;20.60;99.90
27707;DHT22;36332;51.384;0.040;2023-05-10T11:15:37;20.90;99.90
27707;DHT22;36332;51.384;0.040;2023-05-10T11:18:21;21.50;99.90
27707;DHT22;36332;51.384;0.040;2023-05-10T11:20:58;21.40;99.90
27707;DHT22;36332;51.384;0.040;2023-05-10T11:23:30;21.40;99.90
27707;DHT22;36332;51.384;0.040;2023-05-10T11:25:59;21.50;99.90
27707;DHT22;36332;51.384;0.040;2023-05-10T11:28:27;21.40;99.90
27707;DHT22;36332;51.384;0.040;2023-05-10T11:30:56;21.30;99.90
27707;DHT22;36332;51.384;0.040;2023-05-10T11:33:26;21.40;99.90
27707;DHT22;36332;51.384;0.040;2023-05-10T11:35:56;20.70;99.90
27707;DHT22;36332;51.384;0.040;2023-05-10T11:38:26;21.60;99.90
27707;DHT22;36332;51.384;0.040;2023-05-10T11:40:55;22.10;99.90
27707;DHT22;36332;51.384;0.040;2023-05-10T11:43:27;20.50;99.90
27707;DHT22;36332;51.384;0.040;2023-05-10T11:46:00;21.50;99.90
27707;DHT22;36332;51.384;0.040;2023-05-10T11:48:29;21.90;99.90
27707;DHT22;36332;51.384;0.040;2023-05-10T11:51:00;21.90;99.90
27707;DHT22;36332;51.384;0.040;2023-05-10T11:53:34;22.30;99.90
27707;DHT22;36332;51.384;0.040;2023-05-10T11:56:07;22.20;99.90
27707;DHT22;36332;51.384;0.040;2023-05-10T11:58:38;23.00;99.90
27707;DHT22;36332;51.384;0.040;2023-05-10T12:01:07;22.90;99.90
27707;DHT22;36332;51.384;0.040;2023-05-10T12:03:36;23.00;99.90
27707;DHT22;36332;51.384;0.040;2023-05-10T12:06:05;23.00;99.90
27707;DHT22;36332;51.384;0.040;2023-05-10T12:08:36;22.90;99.90
27707;DHT22;36332;51.384;0.040;2023-05-10T12:11:08;22.90;99.90
27707;DHT22;36332;51.384;0.040;2023-05-10T12:13:38;23.00;99.90
27707;DHT22;36332;51.384;0.040;2023-05-10T12:16:18;23.20;99.90
27707;DHT22;36332;51.384;0.040;2023-05-10T12:18:50;23.60;99.90
27707;DHT22;36332;51.384;0.040;2023-05-10T12:21:22;23.90;99.90
27707;DHT22;36332;51.384;0.040;2023-05-10T12:23:54;23.80;99.90
27707;DHT22;36332;51.384;0.040;2023-05-10T12:26:22;23.70;99.90
27707;DHT22;36332;51.384;0.040;2023-05-10T12:28:50;23.30;99.90
27707;DHT22;36332;51.384;0.040;2023-05-10T12:31:17;23.10;99.90
27707;DHT22;36332;51.384;0.040;2023-05-10T12:36:15;22.50;99.90
27707;DHT22;36332;51.384;0.040;2023-05-10T12:38:45;22.00;99.90
27707;DHT22;36332;51.384;0.040;2023-05-10T12:41:16;21.80;99.90
27707;DHT22;36332;51.384;0.040;2023-05-10T12:43:45;21.60;99.90
27707;DHT22;36332;51.384;0.040;2023-05-10T12:46:14;21.40;99.90
27707;DHT22;36332;51.384;0.040;2023-05-10T12:48:43;21.50;99.90
27707;DHT22;36332;51.384;0.040;2023-05-10T12:51:11;21.50;99.90
27707;DHT22;36332;51.384;0.040;2023-05-10T12:53:40;21.60;99.90
27707;DHT22;36332;51.384;0.040;2023-05-10T12:56:12;22.10;99.90
27707;DHT22;36332;51.384;0.040;2023-05-10T12:58:39;22.20;99.90
27707;DHT22;36332;51.384;0.040;2023-05-10T13:01:07;22.60;99.90
27707;DHT22;36332;51.384;0.040;2023-05-10T13:03:35;23.30;99.90
27707;DHT22;36332;51.384;0.040;2023-05-10T13:06:03;22.70;99.90
27707;DHT22;36332;51.384;0.040;2023-05-10T13:08:30;22.30;99.90
27707;DHT22;36332;51.384;0.040;2023-05-10T13:11:01;21.80;99.90
27707;DHT22;36332;51.384;0.040;2023-05-10T13:13:29;21.30;99.90
27707;DHT22;36332;51.384;0.040;2023-05-10T13:15:57;21.20;99.90
27707;DHT22;36332;51.384;0.040;2023-05-10T13:18:24;21.00;99.90
27707;DHT22;36332;51.384;0.040;2023-05-10T13:20:54;21.10;99.90
27707;DHT22;36332;51.384;0.040;2023-05-10T13:23:22;20.80;99.90
27707;DHT22;36332;51.384;0.040;2023-05-10T13:25:50;21.00;99.90
27707;DHT22;36332;51.384;0.040;2023-05-10T13:28:18;21.10;99.90
27707;DHT22;36332;51.384;0.040;2023-05-10T13:30:47;21.20;99.90
27707;DHT22;36332;51.384;0.040;2023-05-10T13:33:14;21.80;99.90
27707;DHT22;36332;51.384;0.040;2023-05-10T13:35:42;21.90;99.90
27707;DHT22;36332;51.384;0.040;2023-05-10T13:38:10;22.60;99.90
27707;DHT22;36332;51.384;0.040;2023-05-10T13:40:37;23.00;99.90
27707;DHT22;36332;51.384;0.040;2023-05-10T13:43:05;23.10;99.90
27707;DHT22;36332;51.384;0.040;2023-05-10T13:45:32;23.70;99.90
27707;DHT22;36332;51.384;0.040;2023-05-10T13:48:00;23.10;99.90
27707;DHT22;36332;51.384;0.040;2023-05-10T13:52:55;22.80;99.90
27707;DHT22;36332;51.384;0.040;2023-05-10T13:55:23;22.00;99.90
27707;DHT22;36332;51.384;0.040;2023-05-10T13:57:51;22.60;99.90
27707;DHT22;36332;51.384;0.040;2023-05-10T14:00:19;22.40;99.90
27707;DHT22;36332;51.384;0.040;2023-05-10T14:02:47;22.20;99.90
27707;DHT22;36332;51.384;0.040;2023-05-10T14:05:15;21.80;99.90
27707;DHT22;36332;51.384;0.040;2023-05-10T14:07:45;21.30;99.90
27707;DHT22;36332;51.384;0.040;2023-05-10T14:10:13;20.80;99.90
27707;DHT22;36332;51.384;0.040;2023-05-10T14:12:40;20.40;99.90
27707;DHT22;36332;51.384;0.040;2023-05-10T14:15:08;20.00;99.90
27707;DHT22;36332;51.384;0.040;2023-05-10T14:17:38;19.60;99.90
27707;DHT22;36332;51.384;0.040;2023-05-10T14:20:06;19.30;99.90
27707;DHT22;36332;51.384;0.040;2023-05-10T14:22:34;19.00;99.90
27707;DHT22;36332;51.384;0.040;2023-05-10T14:25:02;18.70;99.90
27707;DHT22;36332;51.384;0.040;2023-05-10T14:27:31;18.40;99.90
27707;DHT22;36332;51.384;0.040;2023-05-10T14:29:59;18.40;99.90
27707;DHT22;36332;51.384;0.040;2023-05-10T14:32:27;17.70;99.90
27707;DHT22;36332;51.384;0.040;2023-05-10T14:34:55;18.30;99.90
27707;DHT22;36332;51.384;0.040;2023-05-10T14:37:24;18.50;99.90
27707;DHT22;36332;51.384;0.040;2023-05-10T14:39:52;18.80;99.90
27707;DHT22;36332;51.384;0.040;2023-05-10T14:42:20;18.50;99.90
27707;DHT22;36332;51.384;0.040;2023-05-10T14:44:48;19.50;99.90
27707;DHT22;36332;51.384;0.040;2023-05-10T14:47:15;19.90;99.90
27707;DHT22;36332;51.384;0.040;2023-05-10T14:49:43;20.70;99.90
27707;DHT22;36332;51.384;0.040;2023-05-10T14:52:11;21.60;99.90
27707;DHT22;36332;51.384;0.040;2023-05-10T14:54:39;22.60;99.90
27707;DHT22;36332;51.384;0.040;2023-05-10T14:57:08;23.80;99.90
27707;DHT22;36332;51.384;0.040;2023-05-10T14:59:36;26.10;99.90
27707;DHT22;36332;51.384;0.040;2023-05-10T15:02:04;25.90;99.90
27707;DHT22;36332;51.384;0.040;2023-05-10T15:04:32;26.70;99.90
27707;DHT22;36332;51.384;0.040;2023-05-10T15:07:00;27.60;99.90
27707;DHT22;36332;51.384;0.040;2023-05-10T15:09:28;28.10;99.90
27707;DHT22;36332;51.384;0.040;2023-05-10T15:11:55;28.30;99.90
27707;DHT22;36332;51.384;0.040;2023-05-10T15:14:23;28.30;98.40
27707;DHT22;36332;51.384;0.040;2023-05-10T15:16:51;28.20;98.50
27707;DHT22;36332;51.384;0.040;2023-05-10T15:19:19;28.30;97.20
27707;DHT22;36332;51.384;0.040;2023-05-10T15:21:47;28.70;95.10
27707;DHT22;36332;51.384;0.040;2023-05-10T15:24:15;28.40;92.60
27707;DHT22;36332;51.384;0.040;2023-05-10T15:26:43;28.20;90.20
27707;DHT22;36332;51.384;0.040;2023-05-10T15:29:11;27.90;90.60
27707;DHT22;36332;51.384;0.040;2023-05-10T15:31:39;27.90;90.30
27707;DHT22;36332;51.384;0.040;2023-05-10T15:34:07;27.80;90.60
27707;DHT22;36332;51.384;0.040;2023-05-10T15:36:34;27.60;91.00
27707;DHT22;36332;51.384;0.040;2023-05-10T15:39:02;27.10;90.90
27707;DHT22;36332;51.384;0.040;2023-05-10T15:41:31;26.40;90.50
27707;DHT22;36332;51.384;0.040;2023-05-10T15:43:59;25.50;90.70
27707;DHT22;36332;51.384;0.040;2023-05-10T15:46:30;24.70;93.10
27707;DHT22;36332;51.384;0.040;2023-05-10T15:48:57;24.30;95.40
27707;DHT22;36332;51.384;0.040;2023-05-10T15:51:28;24.80;96.80
27707;DHT22;36332;51.384;0.040;2023-05-10T15:53:55;25.50;96.90
27707;DHT22;36332;51.384;0.040;2023-05-10T15:56:34;26.10;97.40
27707;DHT22;36332;51.384;0.040;2023-05-10T15:59:02;26.70;96.30
27707;DHT22;36332;51.384;0.040;2023-05-10T16:01:30;26.90;95.20
27707;DHT22;36332;51.384;0.040;2023-05-10T16:03:59;26.70;94.70
27707;DHT22;36332;51.384;0.040;2023-05-10T16:06:27;26.40;94.70
27707;DHT22;36332;51.384;0.040;2023-05-10T16:08:54;25.70;94.80
27707;DHT22;36332;51.384;0.040;2023-05-10T16:11:22;25.00;95.10
27707;DHT22;36332;51.384;0.040;2023-05-10T16:13:50;23.90;95.60
27707;DHT22;36332;51.384;0.040;2023-05-10T16:16:17;23.40;96.60
27707;DHT22;36332;51.384;0.040;2023-05-10T16:18:45;22.70;98.00
27707;DHT22;36332;51.384;0.040;2023-05-10T16:21:13;22.00;98.80